createdAt,value
2018-08-14T00:00:43.610Z,17.37
2018-08-14T00:03:13.189Z,17.80
2018-08-14T00:05:41.596Z,16.57
2018-08-14T00:08:09.844Z,15.10
2018-08-14T00:10:38.148Z,15.10
2018-08-14T00:13:09.292Z,17.10
2018-08-14T00:15:37.672Z,15.43
2018-08-14T00:18:06.312Z,15.40
2018-08-14T00:20:34.601Z,15.53
2018-08-14T00:23:02.832Z,17.30
2018-08-14T00:25:31.077Z,16.60
2018-08-14T00:27:59.355Z,16.50
2018-08-14T00:30:28.944Z,15.90
2018-08-14T00:32:58.306Z,15.53
2018-08-14T00:35:26.677Z,14.10
2018-08-14T00:37:54.928Z,16.20
2018-08-14T00:40:23.784Z,13.40
2018-08-14T00:42:53.600Z,15.20
2018-08-14T00:45:22.155Z,14.73
2018-08-14T00:47:50.932Z,14.20
2018-08-14T00:50:19.211Z,15.67
2018-08-14T00:52:47.685Z,13.60
2018-08-14T00:55:17.008Z,13.80
2018-08-14T00:57:45.596Z,14.03
2018-08-14T01:00:20.452Z,15.30
2018-08-14T01:02:49.347Z,15.97
2018-08-14T01:05:18.116Z,14.80
2018-08-14T01:07:46.668Z,15.40
2018-08-14T01:10:15.267Z,16.10
2018-08-14T01:12:47.007Z,15.57
2018-08-14T01:15:16.833Z,16.17
2018-08-14T01:17:45.604Z,16.63
2018-08-14T01:20:14.693Z,17.70
2018-08-14T01:22:44.205Z,17.03
2018-08-14T01:25:12.483Z,17.10
2018-08-14T01:27:40.745Z,16.93
2018-08-14T01:30:16.628Z,17.97
2018-08-14T01:32:44.877Z,19.00
2018-08-14T01:35:13.117Z,18.57
2018-08-14T01:37:41.340Z,18.73
2018-08-14T01:40:09.591Z,19.90
2018-08-14T01:42:37.848Z,20.87
2018-08-14T01:45:07.029Z,23.03
2018-08-14T01:47:35.392Z,20.57
2018-08-14T01:50:04.364Z,22.50
2018-08-14T01:52:32.599Z,24.40
2018-08-14T01:55:00.857Z,24.87
2018-08-14T01:57:29.156Z,26.10
2018-08-14T01:59:57.445Z,28.60
2018-08-14T02:02:25.678Z,29.00
2018-08-14T02:04:53.933Z,31.47
2018-08-14T02:07:22.169Z,30.33
2018-08-14T02:09:50.445Z,30.90
2018-08-14T02:12:18.714Z,31.40
2018-08-14T02:14:46.973Z,33.83
2018-08-14T02:17:15.224Z,31.80
2018-08-14T02:19:43.450Z,31.63
2018-08-14T02:22:11.693Z,32.50
2018-08-14T02:24:39.912Z,33.30
2018-08-14T02:27:08.168Z,33.27
2018-08-14T02:29:36.397Z,32.17
2018-08-14T02:32:04.671Z,30.40
2018-08-14T02:34:32.897Z,29.20
2018-08-14T02:37:01.136Z,30.67
2018-08-14T02:39:29.376Z,30.50
2018-08-14T02:41:57.633Z,30.33
2018-08-14T02:44:25.845Z,29.90
2018-08-14T02:46:54.100Z,31.37
2018-08-14T02:49:22.396Z,32.20
2018-08-14T02:51:50.628Z,29.50
2018-08-14T02:54:18.873Z,31.57
2018-08-14T02:56:47.111Z,32.30
2018-08-14T02:59:15.320Z,33.77
2018-08-14T03:01:43.576Z,30.90
2018-08-14T03:04:11.783Z,31.17
2018-08-14T03:06:40.023Z,32.20
2018-08-14T03:09:10.060Z,33.87
2018-08-14T03:11:38.576Z,32.60
2018-08-14T03:14:07.224Z,34.80
2018-08-14T03:16:35.469Z,31.50
2018-08-14T03:19:03.988Z,32.67
2018-08-14T03:21:32.237Z,33.73
2018-08-14T03:24:00.760Z,36.00
2018-08-14T03:26:29.382Z,35.77
2018-08-14T03:28:57.704Z,34.70
2018-08-14T03:31:26.202Z,36.93
2018-08-14T03:33:54.433Z,36.63
2018-08-14T03:36:22.677Z,32.77
2018-08-14T03:38:50.911Z,35.43
2018-08-14T03:41:19.155Z,36.77
2018-08-14T03:43:47.382Z,36.63
2018-08-14T03:46:15.624Z,36.60
2018-08-14T03:48:43.868Z,36.30
2018-08-14T03:51:12.101Z,37.47
2018-08-14T03:53:40.323Z,34.97
2018-08-14T03:56:08.560Z,34.17
2018-08-14T03:58:36.832Z,35.83
2018-08-14T04:01:05.077Z,34.73
2018-08-14T04:03:33.316Z,36.67
2018-08-14T04:06:01.548Z,35.97
2018-08-14T04:08:29.776Z,38.00
2018-08-14T04:10:57.984Z,37.80
2018-08-14T04:13:26.262Z,37.97
2018-08-14T04:15:54.476Z,38.13
2018-08-14T04:18:22.736Z,36.80
2018-08-14T04:20:50.948Z,38.20
2018-08-14T04:23:19.184Z,37.57
2018-08-14T04:25:47.404Z,39.70
2018-08-14T04:28:15.647Z,39.97
2018-08-14T04:30:43.865Z,38.60
2018-08-14T04:33:12.124Z,38.87
2018-08-14T04:35:40.421Z,39.13
2018-08-14T04:38:08.669Z,37.07
2018-08-14T04:40:36.899Z,39.10
2018-08-14T04:43:05.176Z,37.00
2018-08-14T04:45:33.392Z,37.60
2018-08-14T04:48:01.681Z,37.40
2018-08-14T04:50:29.936Z,38.30
2018-08-14T04:52:58.210Z,38.47
2018-08-14T04:55:26.498Z,33.00
2018-08-14T04:57:54.804Z,36.93
2018-08-14T05:00:23.071Z,37.40
2018-08-14T05:02:51.665Z,36.68
2018-08-14T05:05:19.912Z,35.17
2018-08-14T05:07:48.177Z,33.90
2018-08-14T05:10:16.964Z,33.50
2018-08-14T05:12:45.736Z,33.75
2018-08-14T05:15:13.967Z,33.77
2018-08-14T05:17:43.268Z,31.65
2018-08-14T05:20:12.735Z,34.50
2018-08-14T05:22:41.661Z,33.60
2018-08-14T05:25:10.457Z,29.63
2018-08-14T05:27:39.176Z,31.00
2018-08-14T05:30:10.893Z,30.65
2018-08-14T05:32:39.508Z,29.10
2018-08-14T05:35:08.456Z,27.93
2018-08-14T05:37:37.809Z,30.00
2018-08-14T05:40:06.338Z,27.73
2018-08-14T05:42:34.638Z,27.83
2018-08-14T05:45:02.894Z,27.75
2018-08-14T05:47:31.298Z,28.20
2018-08-14T05:49:59.550Z,27.87
2018-08-14T05:52:27.844Z,28.00
2018-08-14T05:54:56.056Z,25.13
2018-08-14T05:57:24.297Z,26.75
2018-08-14T05:59:52.684Z,27.07
2018-08-14T06:02:20.900Z,27.73
2018-08-14T06:04:49.144Z,27.30
2018-08-14T06:07:18.858Z,28.67
2018-08-14T06:09:47.128Z,27.97
2018-08-14T06:12:15.342Z,26.93
2018-08-14T06:14:43.581Z,28.27
2018-08-14T06:17:11.878Z,27.27
2018-08-14T06:19:40.119Z,26.68
2018-08-14T06:22:08.442Z,26.43
2018-08-14T06:24:36.924Z,23.17
2018-08-14T06:27:05.883Z,27.77
2018-08-14T06:29:34.145Z,28.77
2018-08-14T06:32:02.384Z,29.17
2018-08-14T06:34:30.693Z,28.17
2018-08-14T06:36:58.889Z,30.70
2018-08-14T06:39:27.150Z,33.13
2018-08-14T06:41:55.384Z,31.30
2018-08-14T06:44:23.648Z,30.92
2018-08-14T06:46:51.856Z,29.10
2018-08-14T06:49:20.132Z,28.60
2018-08-14T06:51:48.380Z,30.00
2018-08-14T06:54:16.619Z,29.52
2018-08-14T06:56:44.839Z,27.27
2018-08-14T06:59:13.092Z,29.90
2018-08-14T07:01:41.308Z,29.00
2018-08-14T07:04:09.560Z,28.17
2018-08-14T07:06:37.811Z,28.80
2018-08-14T07:09:08.169Z,24.40
2018-08-14T07:11:36.389Z,27.07
2018-08-14T07:14:07.352Z,26.23
2018-08-14T07:16:36.151Z,23.55
2018-08-14T07:19:04.343Z,24.77
2018-08-14T07:21:32.568Z,21.10
2018-08-14T07:24:00.812Z,19.20
2018-08-14T07:26:29.049Z,21.73
2018-08-14T07:28:57.285Z,21.90
2018-08-14T07:31:25.495Z,22.10
2018-08-14T07:33:53.744Z,20.60
2018-08-14T07:36:21.985Z,19.40
2018-08-14T07:38:50.258Z,18.33
2018-08-14T07:41:23.147Z,18.03
2018-08-14T07:43:51.832Z,19.03
2018-08-14T07:46:20.048Z,18.07
2018-08-14T07:48:48.325Z,20.30
2018-08-14T07:51:16.542Z,19.27
2018-08-14T07:53:44.780Z,19.40
2018-08-14T07:56:13.005Z,18.37
2018-08-14T07:58:41.313Z,19.60
2018-08-14T08:01:09.547Z,20.07
2018-08-14T08:03:37.804Z,17.83
2018-08-14T08:06:06.139Z,18.00
2018-08-14T08:08:34.329Z,18.53
2018-08-14T08:11:02.575Z,17.30
2018-08-14T08:13:30.816Z,15.50
2018-08-14T08:15:59.055Z,14.20
2018-08-14T08:18:27.288Z,13.77
2018-08-14T08:20:55.521Z,13.83
2018-08-14T08:23:23.816Z,11.47
2018-08-14T08:25:52.078Z,11.50
2018-08-14T08:28:20.296Z,11.70
2018-08-14T08:30:48.556Z,10.90
2018-08-14T08:33:16.809Z,9.87
2018-08-14T08:35:45.047Z,8.97
2018-08-14T08:38:13.252Z,8.40
2018-08-14T08:40:41.486Z,7.47
2018-08-14T08:43:09.698Z,8.70
2018-08-14T08:45:37.933Z,8.87
2018-08-14T08:48:18.449Z,8.70
2018-08-14T08:50:46.974Z,9.20
2018-08-14T08:53:16.341Z,9.50
2018-08-14T08:55:44.576Z,9.43
2018-08-14T08:58:12.869Z,9.03
2018-08-14T09:00:41.041Z,7.17
2018-08-14T09:03:09.249Z,7.30
2018-08-14T09:05:38.343Z,7.70
2018-08-14T09:08:09.194Z,7.20
2018-08-14T09:10:37.412Z,8.30
2018-08-14T09:13:06.332Z,8.80
2018-08-14T09:15:34.575Z,8.80
2018-08-14T09:18:02.807Z,7.73
2018-08-14T09:20:31.043Z,9.40
2018-08-14T09:22:59.255Z,7.67
2018-08-14T09:25:27.517Z,8.03
2018-08-14T09:27:55.729Z,7.43
2018-08-14T09:30:24.003Z,8.53
2018-08-14T09:32:52.240Z,6.80
2018-08-14T09:35:20.492Z,5.90
2018-08-14T09:37:48.712Z,5.10
2018-08-14T09:40:18.695Z,3.77
2018-08-14T09:42:48.668Z,3.93
2018-08-14T09:45:16.863Z,3.30
2018-08-14T09:47:45.336Z,3.03
2018-08-14T09:50:21.470Z,3.83
2018-08-14T09:52:49.815Z,2.50
2018-08-14T09:55:19.288Z,3.43
2018-08-14T09:57:48.521Z,1.93
2018-08-14T10:00:33.636Z,2.07
2018-08-14T10:03:11.471Z,2.60
2018-08-14T10:05:45.117Z,1.93
2018-08-14T10:08:18.942Z,1.50
2018-08-14T10:10:47.186Z,2.40
2018-08-14T10:13:16.764Z,1.10
2018-08-14T10:15:45.009Z,1.30
2018-08-14T10:18:16.601Z,1.73
2018-08-14T10:20:44.893Z,1.50
2018-08-14T10:23:13.085Z,1.43
2018-08-14T10:25:41.340Z,1.57
2018-08-14T10:28:10.904Z,1.70
2018-08-14T10:30:39.157Z,1.90
2018-08-14T10:33:07.691Z,2.07
2018-08-14T10:35:36.100Z,1.70
2018-08-14T10:38:04.508Z,1.80
2018-08-14T10:40:32.716Z,1.93
2018-08-14T10:43:01.067Z,1.70
2018-08-14T10:45:29.287Z,1.90
2018-08-14T10:47:57.527Z,1.53
2018-08-14T10:50:25.858Z,1.60
2018-08-14T10:52:54.260Z,1.70
2018-08-14T10:55:22.557Z,1.60
2018-08-14T10:57:50.780Z,1.40
2018-08-14T11:00:22.436Z,1.30
2018-08-14T11:02:50.976Z,1.30
2018-08-14T11:05:19.805Z,1.50
2018-08-14T11:07:48.656Z,1.57
2018-08-14T11:10:20.408Z,1.10
2018-08-14T11:12:48.720Z,1.20
2018-08-14T11:15:16.956Z,1.10
2018-08-14T11:17:45.443Z,1.00
2018-08-14T11:20:20.323Z,1.60
2018-08-14T11:22:49.232Z,1.63
2018-08-14T11:25:17.684Z,1.50
2018-08-14T11:27:45.967Z,1.50
2018-08-14T11:30:21.609Z,1.20
2018-08-14T11:32:50.045Z,1.10
2018-08-14T11:35:18.724Z,1.13
2018-08-14T11:37:46.972Z,0.97
2018-08-14T11:40:15.184Z,1.03
2018-08-14T11:42:43.644Z,0.82
2018-08-14T11:45:18.227Z,1.00
2018-08-14T11:47:47.054Z,0.83
2018-08-14T11:50:16.620Z,0.70
2018-08-14T11:52:46.859Z,1.23
2018-08-14T11:55:16.252Z,1.20
2018-08-14T11:57:45.567Z,0.77
2018-08-14T12:00:16.381Z,0.90
2018-08-14T12:02:45.596Z,0.60
2018-08-14T12:05:13.925Z,1.10
2018-08-14T12:07:42.819Z,0.67
2018-08-14T12:10:12.497Z,0.70
2018-08-14T12:12:41.722Z,0.70
2018-08-14T12:15:11.457Z,0.93
2018-08-14T12:17:39.988Z,0.77
2018-08-14T12:20:10.100Z,0.70
2018-08-14T12:22:38.344Z,0.90
2018-08-14T12:25:06.760Z,0.93
2018-08-14T12:27:34.984Z,1.00
2018-08-14T12:30:03.226Z,1.30
2018-08-14T12:32:31.542Z,1.02
2018-08-14T12:34:59.763Z,1.30
2018-08-14T12:37:28.041Z,1.22
2018-08-14T12:39:56.260Z,1.43
2018-08-14T12:42:24.553Z,1.30
2018-08-14T12:44:54.344Z,1.50
2018-08-14T12:47:23.196Z,1.80
2018-08-14T12:49:51.546Z,2.00
2018-08-14T12:52:19.837Z,1.80
2018-08-14T12:54:48.644Z,1.70
2018-08-14T12:57:17.177Z,2.22
2018-08-14T12:59:45.457Z,2.08
2018-08-14T13:02:13.688Z,1.63
2018-08-14T13:04:41.998Z,2.00
2018-08-14T13:07:10.206Z,2.00
2018-08-14T13:09:38.450Z,2.03
2018-08-14T13:12:06.684Z,1.50
2018-08-14T13:14:34.968Z,3.22
2018-08-14T13:17:03.216Z,1.95
2018-08-14T13:19:31.460Z,2.05
2018-08-14T13:21:59.702Z,2.10
2018-08-14T13:24:27.950Z,1.80
2018-08-14T13:26:56.280Z,2.00
2018-08-14T13:29:24.530Z,3.40
2018-08-14T13:31:52.805Z,2.37
2018-08-14T13:34:23.445Z,2.13
2018-08-14T13:36:51.943Z,5.03
2018-08-14T13:39:20.640Z,2.40
2018-08-14T13:41:49.372Z,2.60
2018-08-14T13:44:19.022Z,2.30
2018-08-14T13:46:47.776Z,2.67
2018-08-14T13:49:16.687Z,2.70
2018-08-14T13:51:45.538Z,2.30
2018-08-14T13:54:14.946Z,2.57
2018-08-14T13:56:43.806Z,2.42
2018-08-14T13:59:12.947Z,3.20
2018-08-14T14:01:41.942Z,2.60
2018-08-14T14:04:10.592Z,2.57
2018-08-14T14:06:39.484Z,2.40
2018-08-14T14:09:07.733Z,2.60
2018-08-14T14:11:35.980Z,2.70
2018-08-14T14:14:04.934Z,3.00
2018-08-14T14:16:33.204Z,3.77
2018-08-14T14:19:01.441Z,1.98
2018-08-14T14:21:29.768Z,2.57
2018-08-14T14:23:58.008Z,2.20
2018-08-14T14:26:26.363Z,5.15
2018-08-14T14:28:54.585Z,2.80
2018-08-14T14:31:22.877Z,2.37
2018-08-14T14:33:51.234Z,1.80
2018-08-14T14:36:19.447Z,2.40
2018-08-14T14:38:47.787Z,2.40
2018-08-14T14:41:16.309Z,2.02
2018-08-14T14:43:44.620Z,1.80
2018-08-14T14:46:12.929Z,2.50
2018-08-14T14:48:42.268Z,3.10
2018-08-14T14:51:10.521Z,2.83
2018-08-14T14:53:38.752Z,3.03
2018-08-14T14:56:07.128Z,2.72
2018-08-14T14:58:35.396Z,2.20
2018-08-14T15:01:03.631Z,2.43
2018-08-14T15:03:31.932Z,2.65
2018-08-14T15:06:00.162Z,2.13
2018-08-14T15:08:28.388Z,2.95
2018-08-14T15:10:56.688Z,1.83
2018-08-14T15:13:24.925Z,2.00
2018-08-14T15:15:53.233Z,1.67
2018-08-14T15:18:22.457Z,1.77
2018-08-14T15:20:50.679Z,1.87
2018-08-14T15:23:18.871Z,1.70
2018-08-14T15:25:47.092Z,2.47
2018-08-14T15:28:53.067Z,1.67
2018-08-14T15:31:21.263Z,2.57
2018-08-14T15:33:50.297Z,1.50
2018-08-14T15:36:18.520Z,1.73
2018-08-14T15:38:46.736Z,1.72
2018-08-14T15:41:14.988Z,1.95
2018-08-14T15:43:43.195Z,1.65
2018-08-14T15:46:11.444Z,2.10
2018-08-14T15:48:39.676Z,1.50
2018-08-14T15:51:08.412Z,1.60
2018-08-14T15:53:36.648Z,1.90
2018-08-14T15:56:04.903Z,1.87
2018-08-14T15:58:33.132Z,2.10
2018-08-14T16:01:01.401Z,2.67
2018-08-14T16:03:29.575Z,2.37
2018-08-14T16:05:57.825Z,2.80
2018-08-14T16:08:26.020Z,1.80
2018-08-14T16:10:55.046Z,1.90
2018-08-14T16:13:23.249Z,1.80
2018-08-14T16:15:51.472Z,2.03
2018-08-14T16:18:19.672Z,3.63
2018-08-14T16:20:48.072Z,1.70
2018-08-14T16:23:16.256Z,1.77
2018-08-14T16:25:44.472Z,1.25
2018-08-14T16:28:12.736Z,2.07
2018-08-14T16:30:41.057Z,1.90
2018-08-14T16:33:09.285Z,1.97
2018-08-14T16:35:37.568Z,1.40
2018-08-14T16:38:06.188Z,1.80
2018-08-14T16:40:34.435Z,2.05
2018-08-14T16:43:02.707Z,2.42
2018-08-14T16:45:30.945Z,1.80
2018-08-14T16:47:59.187Z,2.47
2018-08-14T16:50:27.434Z,2.23
2018-08-14T16:52:55.654Z,1.97
2018-08-14T16:55:23.868Z,2.00
2018-08-14T16:57:52.079Z,1.20
2018-08-14T17:00:27.220Z,1.57
2018-08-14T17:02:56.473Z,2.33
2018-08-14T17:05:24.683Z,1.45
2018-08-14T17:07:53.261Z,2.70
2018-08-14T17:10:22.671Z,2.00
2018-08-14T17:12:51.012Z,1.80
2018-08-14T17:15:19.249Z,1.20
2018-08-14T17:17:48.320Z,1.50
2018-08-14T17:20:16.226Z,1.77
2018-08-14T17:22:44.511Z,1.80
2018-08-14T17:25:13.008Z,3.27
2018-08-14T17:27:48.484Z,1.27
2018-08-14T17:30:19.888Z,1.30
2018-08-14T17:32:48.904Z,2.55
2018-08-14T17:35:17.068Z,1.93
2018-08-14T17:37:45.316Z,1.37
2018-08-14T17:40:15.783Z,1.95
2018-08-14T17:42:44.164Z,1.70
2018-08-14T17:45:14.957Z,1.97
2018-08-14T17:47:43.167Z,2.53
2018-08-14T17:50:11.369Z,1.70
2018-08-14T17:52:39.624Z,1.70
2018-08-14T17:55:08.595Z,1.55
2018-08-14T17:57:36.936Z,1.80
2018-08-14T18:00:10.903Z,2.37
2018-08-14T18:02:39.690Z,2.40
2018-08-14T18:05:08.184Z,1.60
2018-08-14T18:07:36.404Z,1.70
2018-08-14T18:10:06.800Z,2.10
2018-08-14T18:12:35.447Z,2.20
2018-08-14T18:15:03.862Z,1.67
2018-08-14T18:17:32.091Z,2.07
2018-08-14T18:20:00.404Z,1.53
2018-08-14T18:22:28.563Z,1.32
2018-08-14T18:24:56.803Z,1.37
2018-08-14T18:27:25.985Z,1.52
2018-08-14T18:29:54.299Z,1.40
2018-08-14T18:32:22.667Z,1.50
2018-08-14T18:34:50.952Z,2.23
2018-08-14T18:37:19.324Z,1.57
2018-08-14T18:39:47.625Z,2.75
2018-08-14T18:42:15.864Z,2.50
2018-08-14T18:44:44.095Z,1.70
2018-08-14T18:47:12.907Z,1.57
2018-08-14T18:49:41.228Z,1.50
2018-08-14T18:52:09.489Z,1.43
2018-08-14T18:54:37.804Z,1.62
2018-08-14T18:57:06.271Z,1.62
2018-08-14T18:59:34.625Z,2.13
2018-08-14T19:02:03.048Z,1.72
2018-08-14T19:04:31.372Z,1.53
2018-08-14T19:07:00.680Z,1.50
2018-08-14T19:09:29.019Z,1.30
2018-08-14T19:11:57.277Z,1.43
2018-08-14T19:14:25.472Z,1.67
2018-08-14T19:16:53.711Z,2.13
2018-08-14T19:19:21.957Z,1.60
2018-08-14T19:21:50.262Z,2.23
2018-08-14T19:24:18.508Z,2.70
2018-08-14T19:26:47.112Z,1.30
2018-08-14T19:29:15.653Z,1.73
2018-08-14T19:31:44.112Z,2.10
2018-08-14T19:34:12.495Z,1.50
2018-08-14T19:36:41.264Z,1.30
2018-08-14T19:39:11.373Z,1.87
2018-08-14T19:41:40.787Z,1.70
2018-08-14T19:44:09.535Z,2.13
2018-08-14T19:46:38.876Z,1.30
2018-08-14T19:49:07.289Z,1.50
2018-08-14T19:51:35.621Z,2.10
2018-08-14T19:54:03.912Z,1.50
2018-08-14T19:56:32.159Z,1.60
2018-08-14T19:59:01.027Z,2.30
2018-08-14T20:01:29.382Z,1.80
2018-08-14T20:03:57.792Z,1.80
2018-08-14T20:06:26.027Z,2.17
2018-08-14T20:08:54.459Z,1.80
2018-08-14T20:11:22.742Z,1.30
2018-08-14T20:13:52.293Z,1.17
2018-08-14T20:16:20.579Z,1.60
2018-08-14T20:18:48.872Z,1.80
2018-08-14T20:21:17.196Z,2.02
2018-08-14T20:23:45.753Z,1.53
2018-08-14T20:26:13.999Z,1.77
2018-08-14T20:28:42.637Z,1.60
2018-08-14T20:31:10.855Z,1.43
2018-08-14T20:33:39.084Z,1.23
2018-08-14T20:36:08.200Z,1.37
2018-08-14T20:38:36.423Z,1.67
2018-08-14T20:41:04.732Z,1.70
2018-08-14T20:43:33.041Z,2.00
2018-08-14T20:46:01.567Z,2.15
2018-08-14T20:48:29.824Z,2.20
2018-08-14T20:50:58.196Z,1.83
2018-08-14T20:53:26.485Z,2.43
2018-08-14T20:55:54.801Z,1.47
2018-08-14T20:58:23.256Z,2.33
2018-08-14T21:00:51.546Z,1.33
2018-08-14T21:03:19.780Z,2.10
2018-08-14T21:05:47.977Z,1.97
2018-08-14T21:08:16.355Z,1.55
2018-08-14T21:10:44.552Z,1.20
2018-08-14T21:13:12.780Z,2.20
2018-08-14T21:15:46.480Z,2.00
2018-08-14T21:18:14.704Z,1.50
2018-08-14T21:20:42.946Z,1.70
2018-08-14T21:23:11.164Z,1.50
2018-08-14T21:25:39.355Z,1.70
2018-08-14T21:28:07.563Z,1.60
2018-08-14T21:30:35.815Z,1.70
2018-08-14T21:33:04.183Z,2.67
2018-08-14T21:35:32.397Z,1.83
2018-08-14T21:38:00.688Z,1.80
2018-08-14T21:40:28.920Z,1.67
2018-08-14T21:42:57.112Z,1.43
2018-08-14T21:45:25.328Z,1.30
2018-08-14T21:47:53.543Z,1.83
2018-08-14T21:50:21.752Z,1.97
2018-08-14T21:52:49.955Z,1.70
2018-08-14T21:55:18.173Z,2.20
2018-08-14T21:57:46.392Z,1.80
2018-08-14T22:00:21.926Z,1.53
2018-08-14T22:02:50.498Z,3.57
2018-08-14T22:05:18.724Z,2.07
2018-08-14T22:07:47.408Z,1.60
2018-08-14T22:10:17.479Z,2.27
2018-08-14T22:12:45.687Z,2.47
2018-08-14T22:15:13.922Z,2.40
2018-08-14T22:17:42.120Z,1.90
2018-08-14T22:20:12.339Z,1.90
2018-08-14T22:22:40.888Z,1.70
2018-08-14T22:25:09.115Z,1.97
2018-08-14T22:27:37.308Z,2.00
2018-08-14T22:30:08.318Z,2.60
2018-08-14T22:32:36.517Z,1.77
2018-08-14T22:35:05.272Z,1.80
2018-08-14T22:37:33.473Z,2.07
2018-08-14T22:40:02.000Z,1.83
2018-08-14T22:42:30.229Z,1.57
2018-08-14T22:44:58.527Z,2.47
2018-08-14T22:47:26.756Z,1.60
2018-08-14T22:49:54.983Z,2.37
2018-08-14T22:52:23.192Z,2.80
2018-08-14T22:54:51.461Z,2.03
2018-08-14T22:57:19.624Z,2.00
2018-08-14T22:59:47.840Z,1.97
2018-08-14T23:02:16.047Z,1.87
2018-08-14T23:04:44.279Z,1.77
2018-08-14T23:07:12.484Z,2.10
2018-08-14T23:09:40.711Z,1.57
2018-08-14T23:12:08.899Z,2.40
2018-08-14T23:14:37.110Z,2.27
2018-08-14T23:17:05.516Z,2.50
2018-08-14T23:19:33.783Z,1.60
2018-08-14T23:22:01.988Z,2.00
2018-08-14T23:24:30.223Z,2.30
2018-08-14T23:26:58.440Z,2.03
2018-08-14T23:29:26.707Z,2.53
2018-08-14T23:31:54.912Z,1.60
2018-08-14T23:34:23.112Z,1.80
2018-08-14T23:36:51.332Z,1.60
2018-08-14T23:39:19.549Z,1.70
2018-08-14T23:41:47.760Z,2.20
2018-08-14T23:44:15.964Z,1.97
2018-08-14T23:46:44.188Z,1.90
2018-08-14T23:49:12.415Z,1.50
2018-08-14T23:51:40.636Z,2.03
2018-08-14T23:54:08.867Z,1.27
2018-08-14T23:56:37.078Z,1.57
2018-08-14T23:59:05.400Z,1.33
